Time;durP1;ratioP1;P1;durP2;ratioP2;P2;SDS_P1;SDS_P2;PMS_P1;PMS_P2;Temp;Humidity;BMP_temperature;BMP_pressure;BME280_temperature;BME280_humidity;BME280_pressure;Samples;Min_cycle;Max_cycle;Signal;HPM_P1;HPM_P2
2022/01/15 00:02:04;;;;;;;0.90;0.43;;;;;;;;;;4953202;29;20059;-64
2022/01/15 00:04:35;;;;;;;1.13;0.63;;;;;;;;;;4953890;29;20066;-64
2022/01/15 00:07:06;;;;;;;1.98;0.65;;;;;;;;;;4953467;29;20059;-64
2022/01/15 00:09:38;;;;;;;2.35;0.70;;;;;;;;;;4905960;29;20062;-64
2022/01/15 00:12:09;;;;;;;1.35;0.57;;;;;;;;;;4920157;28;20042;-65
2022/01/15 00:14:42;;;;;;;2.95;0.63;;;;;;;;;;4992164;28;20054;-64
2022/01/15 00:17:31;;;;;;;2.95;0.50;;;;;;;;;;4960038;28;20050;-64
2022/01/15 00:20:05;;;;;;;1.33;0.60;;;;;;;;;;4992026;28;20059;-64
2022/01/15 00:22:36;;;;;;;1.55;0.28;;;;;;;;;;4992086;28;20050;-65
2022/01/15 00:25:07;;;;;;;0.75;0.38;;;;;;;;;;5034390;28;20511;-64
2022/01/15 00:27:45;;;;;;;1.20;0.63;;;;;;;;;;5050812;28;20053;-64
2022/01/15 00:30:22;;;;;;;1.42;0.22;;;;;;;;;;5035608;28;20065;-64
2022/01/15 00:32:54;;;;;;;4.38;0.35;;;;;;;;;;5050874;28;20532;-64
2022/01/15 00:35:26;;;;;;;0.60;0.22;;;;;;;;;;5051108;28;20460;-64
2022/01/15 00:37:56;;;;;;;4.07;0.40;;;;;;;;;;5001271;28;20440;-64
2022/01/15 00:40:26;;;;;;;1.58;0.32;;;;;;;;;;5052592;28;20064;-64
2022/01/15 00:42:57;;;;;;;0.70;0.40;;;;;;;;;;5030050;28;20050;-64
2022/01/15 00:45:32;;;;;;;1.23;0.50;;;;;;;;;;5030819;28;20057;-64
2022/01/15 00:48:03;;;;;;;2.72;0.73;;;;;;;;;;5031111;28;20053;-66
2022/01/15 00:50:33;;;;;;;3.60;1.02;;;;;;;;;;5030797;28;20049;-64
2022/01/15 00:53:03;;;;;;;1.42;0.68;;;;;;;;;;5030972;28;20409;-64
2022/01/15 00:55:34;;;;;;;0.85;0.28;;;;;;;;;;5030544;28;20061;-64
2022/01/15 00:58:07;;;;;;;0.85;0.30;;;;;;;;;;4958827;28;20058;-65
2022/01/15 01:00:41;;;;;;;0.70;0.32;;;;;;;;;;4971471;28;20054;-64
2022/01/15 01:03:11;;;;;;;1.55;0.40;;;;;;;;;;4972221;28;20070;-64
2022/01/15 01:05:41;;;;;;;0.63;0.30;;;;;;;;;;4955941;28;20062;-64
2022/01/15 01:08:12;;;;;;;2.95;0.43;;;;;;;;;;4971479;28;20600;-64
2022/01/15 01:10:58;;;;;;;0.95;0.38;;;;;;;;;;4955982;28;20059;-64
2022/01/15 01:20:03;;;;;;;1.65;0.30;;;;;;;;;;4971889;28;20459;-64
2022/01/15 01:22:53;;;;;;;3.97;0.43;;;;;;;;;;4939407;28;20055;-64
2022/01/15 01:25:19;;;;;;;1.25;0.28;;;;;;;;;;4971492;28;20164;-64
2022/01/15 01:27:53;;;;;;;0.30;0.30;;;;;;;;;;4955318;28;20055;-65
2022/01/15 01:30:30;;;;;;;0.50;0.40;;;;;;;;;;4967294;28;20057;-64
2022/01/15 01:35:44;;;;;;;3.13;0.63;;;;;;;;;;4950586;28;20055;-65
2022/01/15 01:38:29;;;;;;;1.08;0.40;;;;;;;;;;4951714;29;20054;-65
2022/01/15 01:41:01;;;;;;;5.57;1.33;;;;;;;;;;4932541;29;20059;-65
2022/01/15 01:48:42;;;;;;;2.80;0.22;;;;;;;;;;4932452;29;20059;-65
2022/01/15 01:51:22;;;;;;;1.33;0.32;;;;;;;;;;4932797;29;20066;-66
2022/01/15 01:53:54;;;;;;;1.33;0.32;;;;;;;;;;4932313;29;20051;-65
2022/01/15 01:56:25;;;;;;;1.95;0.85;;;;;;;;;;4932395;29;20060;-65
2022/01/15 01:58:55;;;;;;;1.00;0.32;;;;;;;;;;4932533;29;20060;-64
2022/01/15 02:01:25;;;;;;;1.40;0.60;;;;;;;;;;4932671;29;20100;-65
2022/01/15 02:04:01;;;;;;;1.00;0.40;;;;;;;;;;4916485;29;20415;-67
2022/01/15 02:06:34;;;;;;;2.05;0.47;;;;;;;;;;4932017;29;20059;-66
2022/01/15 02:09:09;;;;;;;1.10;0.52;;;;;;;;;;4932325;29;20504;-65
2022/01/15 02:11:40;;;;;;;0.45;0.43;;;;;;;;;;4949879;29;20055;-68
2022/01/15 02:14:10;;;;;;;1.77;0.95;;;;;;;;;;4969189;28;20499;-64
2022/01/15 02:16:41;;;;;;;0.70;0.35;;;;;;;;;;5006246;28;20057;-64
2022/01/15 02:19:11;;;;;;;0.82;0.22;;;;;;;;;;4975279;28;20058;-64
2022/01/15 02:24:21;;;;;;;2.60;0.35;;;;;;;;;;4995109;28;20433;-65
2022/01/15 02:26:51;;;;;;;1.98;0.22;;;;;;;;;;5038160;28;20061;-66
2022/01/15 02:29:22;;;;;;;1.58;0.90;;;;;;;;;;4989988;28;20526;-64
2022/01/15 02:31:53;;;;;;;3.13;0.43;;;;;;;;;;4989868;28;20490;-64
2022/01/15 02:34:24;;;;;;;4.35;0.50;;;;;;;;;;4974248;28;20073;-64
2022/01/15 02:36:58;;;;;;;0.88;0.32;;;;;;;;;;4989755;28;20082;-65
2022/01/15 02:39:28;;;;;;;2.15;0.30;;;;;;;;;;4957552;28;20057;-65
2022/01/15 02:41:59;;;;;;;1.35;0.60;;;;;;;;;;4988865;28;20422;-64
2022/01/15 02:44:33;;;;;;;2.28;0.43;;;;;;;;;;4989889;28;20047;-64
2022/01/15 02:49:35;;;;;;;1.23;0.60;;;;;;;;;;4941361;28;20059;-64
2022/01/15 02:52:06;;;;;;;1.75;0.43;;;;;;;;;;4989811;28;20050;-65
2022/01/15 02:54:36;;;;;;;1.83;0.40;;;;;;;;;;4989959;28;20055;-64
2022/01/15 02:57:07;;;;;;;0.75;0.40;;;;;;;;;;4989703;28;20058;-65
2022/01/15 02:59:37;;;;;;;0.85;0.63;;;;;;;;;;4985780;28;20057;-64
2022/01/15 03:02:08;;;;;;;1.70;0.55;;;;;;;;;;4977468;28;20084;-64
2022/01/15 03:04:38;;;;;;;0.82;0.60;;;;;;;;;;5009318;28;20061;-65
2022/01/15 03:07:08;;;;;;;2.08;0.40;;;;;;;;;;5036696;28;20412;-64
2022/01/15 03:09:40;;;;;;;1.02;0.32;;;;;;;;;;5055363;28;20045;-65
2022/01/15 03:12:11;;;;;;;2.42;0.50;;;;;;;;;;5055049;28;20520;-65
2022/01/15 03:14:44;;;;;;;1.58;0.40;;;;;;;;;;5055054;28;20496;-65
2022/01/15 03:17:15;;;;;;;2.53;0.32;;;;;;;;;;5054606;28;20496;-64
2022/01/15 03:19:45;;;;;;;1.00;0.43;;;;;;;;;;5054810;28;20045;-64
2022/01/15 03:22:15;;;;;;;0.60;0.22;;;;;;;;;;5054736;28;20500;-64
2022/01/15 03:24:46;;;;;;;1.45;0.57;;;;;;;;;;5012533;28;20053;-65
2022/01/15 03:27:17;;;;;;;1.58;0.32;;;;;;;;;;4996386;28;20050;-64
2022/01/15 03:29:47;;;;;;;1.55;0.50;;;;;;;;;;5012849;28;20093;-65
2022/01/15 03:32:18;;;;;;;1.20;0.30;;;;;;;;;;5012597;28;20062;-64
2022/01/15 03:34:50;;;;;;;2.55;0.50;;;;;;;;;;4996107;28;20058;-64
2022/01/15 03:37:20;;;;;;;0.73;0.30;;;;;;;;;;4992646;28;20050;-65
2022/01/15 03:39:50;;;;;;;0.65;0.52;;;;;;;;;;4972907;28;20054;-65
2022/01/15 03:42:21;;;;;;;4.57;0.45;;;;;;;;;;4973235;28;20480;-64
2022/01/15 03:44:51;;;;;;;1.33;0.35;;;;;;;;;;4941249;28;20499;-65
2022/01/15 03:47:21;;;;;;;0.40;0.30;;;;;;;;;;4973394;28;20192;-65
2022/01/15 03:49:51;;;;;;;0.85;0.40;;;;;;;;;;4973510;28;20062;-65
2022/01/15 03:52:22;;;;;;;1.40;0.40;;;;;;;;;;4957482;28;20051;-64
2022/01/15 03:54:52;;;;;;;0.95;0.30;;;;;;;;;;4956395;28;20059;-65
2022/01/15 03:57:22;;;;;;;0.75;0.47;;;;;;;;;;4951019;28;20533;-64
2022/01/15 03:59:53;;;;;;;0.30;0.30;;;;;;;;;;4972852;28;20521;-64
2022/01/15 04:02:23;;;;;;;0.40;0.20;;;;;;;;;;4954733;28;20054;-64
2022/01/15 04:04:53;;;;;;;2.38;0.30;;;;;;;;;;5012021;28;20062;-64
2022/01/15 04:07:23;;;;;;;0.95;0.38;;;;;;;;;;5012081;28;20049;-64
2022/01/15 04:09:54;;;;;;;2.40;0.88;;;;;;;;;;5011882;28;20048;-64
2022/01/15 04:12:24;;;;;;;3.40;1.13;;;;;;;;;;4995618;28;20049;-64
2022/01/15 04:14:54;;;;;;;3.38;1.10;;;;;;;;;;4963610;28;20054;-64
2022/01/15 04:17:25;;;;;;;3.53;0.50;;;;;;;;;;4971250;28;20062;-64
2022/01/15 04:19:58;;;;;;;3.45;1.23;;;;;;;;;;4991789;28;20122;-64
2022/01/15 04:22:28;;;;;;;;;;;;;;;;;;4940759;28;20047;-64
2022/01/15 04:24:58;;;;;;;2.63;0.70;;;;;;;;;;4971861;28;20317;-64
2022/01/15 04:27:28;;;;;;;4.78;0.40;;;;;;;;;;4956589;28;20046;-64
2022/01/15 04:30:03;;;;;;;2.88;0.63;;;;;;;;;;4972525;28;20058;-64
2022/01/15 04:32:34;;;;;;;3.85;0.52;;;;;;;;;;4973308;28;20312;-64
2022/01/15 04:35:05;;;;;;;0.93;0.43;;;;;;;;;;4972477;28;20062;-64
2022/01/15 04:37:45;;;;;;;1.85;0.50;;;;;;;;;;4972230;28;20055;-64
2022/01/15 04:40:18;;;;;;;1.55;0.28;;;;;;;;;;4972240;28;20057;-64
2022/01/15 04:42:48;;;;;;;;;;;;;;;;;;4972536;28;20055;-64
2022/01/15 04:45:17;;;;;;;1.55;0.50;;;;;;;;;;4971902;28;19944;-64
2022/01/15 04:47:48;;;;;;;4.80;0.50;;;;;;;;;;4972074;28;20059;-65
2022/01/15 04:50:18;;;;;;;1.20;0.30;;;;;;;;;;4920510;29;20043;-65
2022/01/15 04:52:49;;;;;;;1.95;0.40;;;;;;;;;;4952781;28;20051;-64
2022/01/15 04:55:19;;;;;;;3.22;0.50;;;;;;;;;;4921583;29;20063;-64
2022/01/15 04:57:49;;;;;;;2.05;0.32;;;;;;;;;;4975992;28;20054;-64
2022/01/15 05:00:20;;;;;;;6.65;0.75;;;;;;;;;;5002725;28;20058;-64
2022/01/15 05:02:50;;;;;;;1.48;0.43;;;;;;;;;;4950865;28;20392;-65
2022/01/15 05:05:20;;;;;;;0.95;0.30;;;;;;;;;;4991244;28;20395;-64
2022/01/15 05:07:53;;;;;;;3.70;0.45;;;;;;;;;;4991187;28;20054;-65
2022/01/15 05:10:28;;;;;;;1.10;0.32;;;;;;;;;;4991042;28;20062;-65
2022/01/15 05:13:01;;;;;;;2.28;0.47;;;;;;;;;;4991139;28;20057;-64
2022/01/15 05:15:32;;;;;;;3.17;0.32;;;;;;;;;;4963404;28;20062;-64
2022/01/15 05:18:02;;;;;;;3.25;0.60;;;;;;;;;;4997570;28;20053;-64
2022/01/15 05:20:33;;;;;;;3.85;0.50;;;;;;;;;;5035292;28;20052;-64
2022/01/15 05:23:03;;;;;;;0.52;0.20;;;;;;;;;;5072399;28;20045;-65
2022/01/15 05:25:34;;;;;;;3.75;0.22;;;;;;;;;;5010166;28;20062;-64
2022/01/15 05:28:05;;;;;;;0.95;0.20;;;;;;;;;;4993465;28;20058;-65
2022/01/15 05:30:35;;;;;;;0.73;0.22;;;;;;;;;;5010079;28;20066;-65
2022/01/15 05:33:08;;;;;;;0.32;0.32;;;;;;;;;;4970916;28;20058;-65
2022/01/15 05:35:39;;;;;;;2.80;0.43;;;;;;;;;;4955652;28;20058;-64
2022/01/15 05:38:10;;;;;;;2.83;0.40;;;;;;;;;;4971431;28;20061;-65
2022/01/15 05:40:41;;;;;;;0.77;0.30;;;;;;;;;;4970999;28;20430;-65
2022/01/15 05:43:12;;;;;;;0.90;0.35;;;;;;;;;;4987353;28;20062;-65
2022/01/15 05:45:42;;;;;;;3.08;0.50;;;;;;;;;;4955084;28;20059;-64
2022/01/15 05:48:13;;;;;;;2.33;0.32;;;;;;;;;;4971238;28;20426;-65
2022/01/15 05:50:43;;;;;;;4.25;0.38;;;;;;;;;;4970910;28;20058;-64
2022/01/15 05:53:14;;;;;;;2.92;0.75;;;;;;;;;;4971354;28;20046;-65
2022/01/15 05:55:44;;;;;;;0.50;0.22;;;;;;;;;;4970877;28;20152;-64
2022/01/15 05:58:15;;;;;;;3.20;0.40;;;;;;;;;;4970801;28;20061;-64
2022/01/15 06:00:45;;;;;;;0.93;0.30;;;;;;;;;;4970988;28;20058;-64
2022/01/15 06:03:15;;;;;;;1.55;0.30;;;;;;;;;;5002070;28;20054;-65
2022/01/15 06:05:45;;;;;;;2.33;0.43;;;;;;;;;;5029586;28;20057;-64
2022/01/15 06:08:16;;;;;;;3.85;0.52;;;;;;;;;;5029811;28;20409;-64
2022/01/15 06:10:46;;;;;;;2.00;0.32;;;;;;;;;;5051301;28;20053;-64
2022/01/15 06:13:16;;;;;;;1.00;0.43;;;;;;;;;;5054466;28;20036;-64
2022/01/15 06:15:46;;;;;;;0.35;0.30;;;;;;;;;;5071431;28;20480;-64
2022/01/15 06:18:16;;;;;;;0.63;0.40;;;;;;;;;;5054236;28;20392;-64
2022/01/15 06:20:47;;;;;;;2.05;0.60;;;;;;;;;;5053826;28;20056;-64
2022/01/15 06:23:17;;;;;;;0.73;0.40;;;;;;;;;;5071419;28;20489;-64
2022/01/15 06:25:47;;;;;;;2.53;0.43;;;;;;;;;;5028912;28;20501;-64
2022/01/15 06:28:17;;;;;;;2.00;0.32;;;;;;;;;;5029085;28;20054;-64
2022/01/15 06:30:48;;;;;;;3.05;0.57;;;;;;;;;;5028883;28;20524;-64
2022/01/15 06:33:19;;;;;;;1.63;0.50;;;;;;;;;;5029172;28;20061;-64
2022/01/15 06:35:49;;;;;;;2.20;0.45;;;;;;;;;;5029393;28;20070;-64
2022/01/15 06:38:19;;;;;;;0.70;0.32;;;;;;;;;;5009161;28;20046;-65
2022/01/15 06:40:50;;;;;;;0.40;0.30;;;;;;;;;;5010366;28;20054;-64
2022/01/15 06:43:20;;;;;;;0.80;0.28;;;;;;;;;;4974322;28;20558;-64
2022/01/15 06:45:51;;;;;;;1.17;0.32;;;;;;;;;;4954770;29;20062;-64
2022/01/15 06:48:21;;;;;;;0.82;0.50;;;;;;;;;;4938925;29;20055;-65
2022/01/15 06:50:51;;;;;;;4.90;0.30;;;;;;;;;;4938831;29;20074;-64
2022/01/15 06:53:21;;;;;;;2.42;0.30;;;;;;;;;;4955206;29;20055;-65
2022/01/15 06:55:53;;;;;;;2.03;0.32;;;;;;;;;;4955019;28;20055;-65
2022/01/15 06:58:26;;;;;;;0.50;0.32;;;;;;;;;;4974220;28;20062;-64
2022/01/15 07:00:56;;;;;;;0.60;0.38;;;;;;;;;;4974141;28;20070;-64
2022/01/15 07:03:26;;;;;;;1.48;0.63;;;;;;;;;;4957932;28;20059;-65
2022/01/15 07:05:56;;;;;;;1.98;0.22;;;;;;;;;;4974008;28;20058;-64
2022/01/15 07:08:27;;;;;;;1.10;0.25;;;;;;;;;;4973795;28;20058;-64
2022/01/15 07:10:57;;;;;;;1.13;0.47;;;;;;;;;;4958051;28;20062;-64
2022/01/15 07:13:29;;;;;;;2.33;0.40;;;;;;;;;;4925782;28;20511;-64
2022/01/15 07:16:00;;;;;;;2.88;0.43;;;;;;;;;;4995910;28;20073;-64
2022/01/15 07:18:32;;;;;;;0.98;0.50;;;;;;;;;;4984382;28;20050;-64
2022/01/15 07:21:03;;;;;;;3.70;0.60;;;;;;;;;;5005275;28;20420;-65
2022/01/15 07:23:33;;;;;;;2.45;0.40;;;;;;;;;;5032502;28;20418;-64
2022/01/15 07:26:04;;;;;;;1.35;0.40;;;;;;;;;;5032900;28;20065;-64
2022/01/15 07:28:35;;;;;;;5.28;0.60;;;;;;;;;;4983964;28;20049;-64
2022/01/15 07:31:06;;;;;;;2.25;0.50;;;;;;;;;;4999326;28;20046;-64
2022/01/15 07:33:36;;;;;;;1.27;0.30;;;;;;;;;;4976191;28;20241;-65
2022/01/15 07:36:06;;;;;;;0.95;0.43;;;;;;;;;;4977058;28;20054;-64
2022/01/15 07:38:37;;;;;;;3.67;0.30;;;;;;;;;;4993070;28;20062;-64
2022/01/15 07:41:12;;;;;;;3.65;0.32;;;;;;;;;;4993304;28;20070;-64
2022/01/15 07:43:42;;;;;;;6.25;0.40;;;;;;;;;;4992907;28;20155;-65
2022/01/15 07:46:13;;;;;;;0.88;0.40;;;;;;;;;;4992880;28;20058;-64
2022/01/15 07:48:42;;;;;;;1.50;0.40;;;;;;;;;;4992667;28;20441;-64
2022/01/15 07:51:13;;;;;;;3.15;0.43;;;;;;;;;;4992191;28;20062;-64
2022/01/15 07:53:43;;;;;;;4.18;0.45;;;;;;;;;;4962242;28;20065;-64
2022/01/15 07:56:13;;;;;;;0.95;0.40;;;;;;;;;;4964899;28;20058;-65
2022/01/15 07:58:43;;;;;;;8.02;0.60;;;;;;;;;;5012134;28;20062;-64
2022/01/15 08:01:14;;;;;;;2.08;0.35;;;;;;;;;;4996200;28;20042;-64
2022/01/15 08:03:46;;;;;;;1.95;0.40;;;;;;;;;;5012005;28;20050;-65
2022/01/15 08:06:17;;;;;;;1.02;0.40;;;;;;;;;;4964332;28;20057;-64
2022/01/15 08:08:47;;;;;;;1.73;0.22;;;;;;;;;;5011808;28;20057;-64
2022/01/15 08:11:17;;;;;;;4.47;0.60;;;;;;;;;;5033231;28;20080;-64
2022/01/15 08:13:48;;;;;;;2.30;0.60;;;;;;;;;;5051638;28;20511;-65
2022/01/15 08:16:18;;;;;;;1.75;0.80;;;;;;;;;;5051603;28;20049;-64
2022/01/15 08:18:49;;;;;;;4.68;0.43;;;;;;;;;;5051363;28;20064;-64
2022/01/15 08:21:19;;;;;;;1.20;0.30;;;;;;;;;;4998170;28;20076;-64
2022/01/15 08:23:49;;;;;;;5.68;0.43;;;;;;;;;;5031525;28;20076;-64
2022/01/15 08:26:20;;;;;;;5.22;0.63;;;;;;;;;;5031330;28;20065;-64
2022/01/15 08:28:50;;;;;;;5.03;0.43;;;;;;;;;;5030910;28;20045;-64
2022/01/15 08:31:21;;;;;;;1.05;0.20;;;;;;;;;;5030843;28;20054;-64
2022/01/15 08:33:51;;;;;;;2.75;0.50;;;;;;;;;;5030744;28;20049;-64
2022/01/15 08:36:22;;;;;;;0.73;0.35;;;;;;;;;;5031491;28;20057;-64
2022/01/15 08:38:53;;;;;;;3.50;0.47;;;;;;;;;;5030811;28;20049;-64
2022/01/15 08:41:25;;;;;;;3.22;0.70;;;;;;;;;;5031319;28;20073;-64
2022/01/15 08:43:56;;;;;;;2.72;0.40;;;;;;;;;;5030993;28;20425;-64
2022/01/15 08:46:27;;;;;;;1.95;0.63;;;;;;;;;;5047049;28;20065;-64
2022/01/15 08:48:57;;;;;;;1.17;0.32;;;;;;;;;;4981669;28;20053;-64
2022/01/15 08:51:30;;;;;;;4.93;0.50;;;;;;;;;;4997988;28;20053;-65
2022/01/15 08:54:00;;;;;;;1.45;0.43;;;;;;;;;;5030669;28;20057;-64
2022/01/15 08:56:30;;;;;;;2.33;0.52;;;;;;;;;;5006892;28;20061;-65
2022/01/15 08:59:00;;;;;;;0.85;0.50;;;;;;;;;;4991020;28;20062;-64
2022/01/15 09:01:32;;;;;;;1.80;0.45;;;;;;;;;;4991291;28;20054;-64
2022/01/15 09:04:03;;;;;;;5.05;0.63;;;;;;;;;;4990111;28;20050;-65
2022/01/15 09:06:33;;;;;;;1.33;0.43;;;;;;;;;;5002320;28;20538;-66
2022/01/15 09:09:03;;;;;;;2.63;0.95;;;;;;;;;;4962644;28;20568;-66
2022/01/15 09:11:33;;;;;;;0.80;0.45;;;;;;;;;;5029494;28;20527;-66
2022/01/15 09:14:04;;;;;;;2.40;0.47;;;;;;;;;;5001434;28;20054;-65
2022/01/15 09:16:34;;;;;;;3.38;0.43;;;;;;;;;;5005793;28;20051;-66
2022/01/15 09:19:05;;;;;;;3.50;0.60;;;;;;;;;;4983909;28;20077;-65
2022/01/15 09:21:35;;;;;;;1.92;0.43;;;;;;;;;;4952203;28;20051;-65
2022/01/15 09:24:06;;;;;;;2.78;0.50;;;;;;;;;;4999235;28;20101;-65
2022/01/15 09:27:01;;;;;;;7.97;0.40;;;;;;;;;;4954158;28;20515;-65
2022/01/15 09:32:21;;;;;;;0.68;0.43;;;;;;;;;;4960815;28;20510;-65
2022/01/15 09:34:51;;;;;;;1.02;0.63;;;;;;;;;;4959469;28;20059;-65
2022/01/15 09:37:21;;;;;;;1.45;0.68;;;;;;;;;;4960379;28;20075;-64
2022/01/15 09:39:51;;;;;;;3.05;0.40;;;;;;;;;;4922756;29;20044;-65
2022/01/15 09:42:25;;;;;;;2.25;1.33;;;;;;;;;;4907732;29;20056;-65
2022/01/15 09:44:55;;;;;;;3.22;0.70;;;;;;;;;;4897332;29;20052;-65
2022/01/15 09:47:28;;;;;;;2.33;0.98;;;;;;;;;;4913810;29;20059;-65
2022/01/15 09:49:59;;;;;;;4.45;1.20;;;;;;;;;;4913620;29;20063;-65
2022/01/15 09:52:32;;;;;;;1.90;1.35;;;;;;;;;;4897694;29;20067;-65
2022/01/15 09:55:06;;;;;;;4.35;1.50;;;;;;;;;;4913562;29;20048;-65
2022/01/15 09:57:39;;;;;;;4.82;2.15;;;;;;;;;;4947453;29;20514;-65
2022/01/15 10:00:16;;;;;;;3.97;2.72;;;;;;;;;;4951868;29;20055;-65
2022/01/15 10:02:47;;;;;;;8.68;4.65;;;;;;;;;;4951603;29;20051;-65
2022/01/15 10:05:19;;;;;;;5.05;3.17;;;;;;;;;;4991301;28;20065;-65
2022/01/15 10:07:57;;;;;;;7.68;4.65;;;;;;;;;;4977221;28;20538;-63
2022/01/15 10:10:33;;;;;;;7.40;3.63;;;;;;;;;;5023144;28;20468;-63
2022/01/15 10:13:18;;;;;;;5.47;2.30;;;;;;;;;;5029378;28;20088;-63
2022/01/15 10:16:00;;;;;;;3.67;2.20;;;;;;;;;;5029598;28;20049;-63
2022/01/15 10:18:33;;;;;;;4.15;1.52;;;;;;;;;;5014405;28;20045;-63
2022/01/15 10:21:13;;;;;;;3.05;1.20;;;;;;;;;;5009087;28;20056;-63
2022/01/15 10:23:52;;;;;;;8.57;1.13;;;;;;;;;;4977004;28;20077;-63
2022/01/15 10:26:25;;;;;;;2.42;0.73;;;;;;;;;;5009455;28;20057;-63
2022/01/15 10:29:02;;;;;;;4.15;0.75;;;;;;;;;;5009263;28;20065;-63
2022/01/15 10:31:40;;;;;;;2.90;0.60;;;;;;;;;;5009269;28;20061;-63
2022/01/15 10:34:29;;;;;;;1.63;0.65;;;;;;;;;;4978151;28;20054;-65
2022/01/15 10:37:08;;;;;;;3.75;0.82;;;;;;;;;;4977058;28;20053;-65
2022/01/15 10:39:39;;;;;;;5.15;1.10;;;;;;;;;;5009258;28;20057;-65
2022/01/15 10:42:15;;;;;;;4.28;1.17;;;;;;;;;;5009242;28;20572;-65
2022/01/15 10:44:47;;;;;;;2.88;1.00;;;;;;;;;;4993053;28;20569;-65
2022/01/15 10:47:21;;;;;;;2.97;0.90;;;;;;;;;;5016385;28;20053;-65
2022/01/15 10:49:51;;;;;;;1.38;0.73;;;;;;;;;;4999717;28;20061;-65
2022/01/15 10:52:26;;;;;;;3.50;0.63;;;;;;;;;;5048862;28;20053;-65
2022/01/15 10:55:06;;;;;;;2.13;0.63;;;;;;;;;;5032648;28;20727;-65
2022/01/15 10:58:02;;;;;;;1.05;0.60;;;;;;;;;;5050127;28;20084;-65
2022/01/15 11:00:46;;;;;;;2.25;0.63;;;;;;;;;;5071052;28;20049;-65
2022/01/15 11:03:17;;;;;;;3.28;0.90;;;;;;;;;;5070022;28;20045;-65
2022/01/15 11:05:50;;;;;;;2.47;0.60;;;;;;;;;;5053079;28;20049;-66
2022/01/15 11:08:21;;;;;;;2.88;0.80;;;;;;;;;;5069845;28;20040;-65
2022/01/15 11:11:05;;;;;;;3.15;0.80;;;;;;;;;;5071324;28;20059;-65
2022/01/15 11:13:39;;;;;;;4.05;1.10;;;;;;;;;;5028542;28;20041;-65
2022/01/15 11:16:14;;;;;;;3.67;0.73;;;;;;;;;;5028650;28;20053;-65
2022/01/15 11:18:49;;;;;;;2.60;1.00;;;;;;;;;;5028126;28;20069;-65
2022/01/15 11:21:22;;;;;;;2.70;1.25;;;;;;;;;;5012584;28;20061;-65
2022/01/15 11:23:56;;;;;;;4.57;2.22;;;;;;;;;;4999825;28;20124;-66
2022/01/15 11:26:29;;;;;;;6.72;1.33;;;;;;;;;;4973549;28;20421;-63
2022/01/15 11:28:59;;;;;;;1.95;0.85;;;;;;;;;;4960548;28;20123;-63
2022/01/15 11:31:33;;;;;;;1.88;1.02;;;;;;;;;;4991974;28;20054;-64
2022/01/15 11:34:05;;;;;;;2.75;0.80;;;;;;;;;;4992665;28;20049;-64
2022/01/15 11:36:44;;;;;;;93.35;62.65;;;;;;;;;;4992321;28;20045;-63
2022/01/15 11:39:33;;;;;;;5.65;2.45;;;;;;;;;;4992613;28;20065;-63
2022/01/15 11:42:04;;;;;;;15.63;10.73;;;;;;;;;;4957041;28;20730;-63
2022/01/15 11:44:38;;;;;;;10.90;5.80;;;;;;;;;;4973254;28;20097;-64
2022/01/15 11:47:22;;;;;;;2.55;0.93;;;;;;;;;;4953509;29;20066;-64
2022/01/15 11:49:58;;;;;;;2.65;0.82;;;;;;;;;;4953926;29;20055;-64
2022/01/15 11:52:30;;;;;;;2.50;0.70;;;;;;;;;;4957229;28;20411;-64
2022/01/15 11:55:02;;;;;;;2.42;0.90;;;;;;;;;;4973158;28;20066;-63
2022/01/15 11:57:47;;;;;;;1.70;0.98;;;;;;;;;;4943578;29;20040;-63
2022/01/15 12:00:26;;;;;;;1.85;0.93;;;;;;;;;;4934307;29;20063;-64
2022/01/15 12:02:59;;;;;;;1.27;0.70;;;;;;;;;;4936437;28;20159;-64
2022/01/15 12:05:33;;;;;;;3.63;0.85;;;;;;;;;;4940940;28;20051;-63
2022/01/15 12:08:03;;;;;;;3.45;0.85;;;;;;;;;;4972914;28;20511;-65
2022/01/15 12:10:45;;;;;;;3.42;1.02;;;;;;;;;;4972460;28;20450;-64
2022/01/15 12:13:20;;;;;;;4.68;1.10;;;;;;;;;;4984988;28;20415;-64
2022/01/15 12:16:13;;;;;;;1.40;0.73;;;;;;;;;;4992205;28;20521;-64
2022/01/15 12:18:50;;;;;;;5.45;0.95;;;;;;;;;;4992842;28;20054;-64
2022/01/15 12:22:06;;;;;;;3.60;1.00;;;;;;;;;;4975869;28;20545;-64
2022/01/15 12:24:53;;;;;;;3.30;2.42;;;;;;;;;;4934004;29;20060;-65
2022/01/15 12:27:27;;;;;;;5.20;1.92;;;;;;;;;;4934043;29;20057;-64
2022/01/15 12:30:00;;;;;;;2.00;1.30;;;;;;;;;;4934051;29;20060;-64
2022/01/15 12:32:33;;;;;;;3.65;1.40;;;;;;;;;;4928646;29;20067;-64
2022/01/15 12:35:04;;;;;;;2.33;0.82;;;;;;;;;;4944434;29;20531;-64
2022/01/15 12:37:35;;;;;;;1.75;0.80;;;;;;;;;;4922975;28;20048;-65
2022/01/15 12:40:06;;;;;;;2.45;0.65;;;;;;;;;;4932992;29;20056;-64
2022/01/15 12:42:37;;;;;;;;;;;;;;;;;;4918570;29;20063;-63
2022/01/15 12:45:07;;;;;;;3.10;0.88;;;;;;;;;;4933929;29;19922;-64
2022/01/15 12:47:47;;;;;;;4.53;1.50;;;;;;;;;;4933656;29;20052;-64
2022/01/15 12:50:18;;;;;;;2.78;1.15;;;;;;;;;;4914689;29;20071;-64
2022/01/15 12:53:01;;;;;;;2.15;0.98;;;;;;;;;;4934241;29;20518;-65
2022/01/15 12:55:34;;;;;;;5.15;1.38;;;;;;;;;;4960160;28;20057;-65
2022/01/15 12:58:06;;;;;;;3.30;1.20;;;;;;;;;;5010889;28;20065;-66
2022/01/15 13:00:39;;;;;;;3.10;1.00;;;;;;;;;;5016445;28;20057;-66
2022/01/15 13:03:11;;;;;;;3.92;1.20;;;;;;;;;;5047789;28;21387;-65
2022/01/15 13:05:53;;;;;;;1.73;0.98;;;;;;;;;;5051142;28;20496;-66
2022/01/15 13:08:36;;;;;;;5.00;0.90;;;;;;;;;;5032872;28;20045;-65
2022/01/15 13:11:20;;;;;;;1.60;0.90;;;;;;;;;;4968222;28;20064;-66
2022/01/15 13:13:56;;;;;;;3.40;1.30;;;;;;;;;;5022013;28;20570;-66
2022/01/15 13:16:30;;;;;;;5.03;1.70;;;;;;;;;;5028489;28;20528;-66
2022/01/15 13:19:03;;;;;;;4.75;1.35;;;;;;;;;;5029644;28;20445;-70
2022/01/15 13:21:40;;;;;;;3.00;0.60;;;;;;;;;;5026415;28;20417;-75
2022/01/15 13:24:11;;;;;;;2.17;0.80;;;;;;;;;;5025588;28;20033;-67
2022/01/15 13:26:49;;;;;;;3.95;0.73;;;;;;;;;;5028308;28;20536;-66
2022/01/15 13:29:24;;;;;;;1.35;0.50;;;;;;;;;;4987477;28;20508;-66
2022/01/15 13:31:54;;;;;;;3.22;0.63;;;;;;;;;;5011878;28;20061;-67
2022/01/15 13:34:34;;;;;;;0.90;0.50;;;;;;;;;;5028007;28;20064;-67
2022/01/15 13:37:13;;;;;;;6.00;0.63;;;;;;;;;;4980262;28;20481;-66
2022/01/15 13:39:43;;;;;;;1.95;0.65;;;;;;;;;;4977702;28;20058;-68
2022/01/15 13:42:21;;;;;;;2.72;0.77;;;;;;;;;;5027640;28;20072;-65
2022/01/15 13:45:13;;;;;;;1.17;0.50;;;;;;;;;;4990620;28;20054;-72
2022/01/15 13:47:44;;;;;;;1.15;0.63;;;;;;;;;;5008861;28;20073;-67
2022/01/15 13:53:42;;;;;;;3.28;0.60;;;;;;;;;;5008991;28;20060;-67
2022/01/15 13:56:30;;;;;;;2.50;0.68;;;;;;;;;;5011627;28;20045;-70
2022/01/15 13:59:03;;;;;;;4.63;0.63;;;;;;;;;;5008025;28;20073;-68
2022/01/15 14:01:56;;;;;;;1.23;0.60;;;;;;;;;;5004862;28;20426;-70
2022/01/15 14:04:28;;;;;;;1.05;0.50;;;;;;;;;;4972010;28;20561;-67
2022/01/15 14:07:22;;;;;;;1.52;0.75;;;;;;;;;;4963686;28;20062;-69
2022/01/15 14:09:55;;;;;;;2.60;0.50;;;;;;;;;;4994844;28;20050;-69
2022/01/15 14:12:26;;;;;;;1.83;0.63;;;;;;;;;;4982799;28;20477;-72
2022/01/15 14:15:20;;;;;;;2.17;0.73;;;;;;;;;;4987603;28;20062;-70
2022/01/15 14:18:07;;;;;;;7.85;0.65;;;;;;;;;;4965363;28;20169;-68
2022/01/15 14:21:16;;;;;;;1.33;0.68;;;;;;;;;;4987539;28;20102;-68
2022/01/15 14:23:44;;;;;;;1.83;0.50;;;;;;;;;;4986174;28;20057;-65
2022/01/15 14:26:19;;;;;;;1.73;0.75;;;;;;;;;;4982449;28;20055;-68
2022/01/15 14:28:56;;;;;;;0.75;0.47;;;;;;;;;;4987989;28;20054;-66
2022/01/15 14:31:27;;;;;;;3.08;0.38;;;;;;;;;;4988442;28;20402;-65
2022/01/15 14:33:58;;;;;;;2.28;0.80;;;;;;;;;;4950328;28;20533;-68
2022/01/15 14:36:30;;;;;;;5.68;0.70;;;;;;;;;;4948476;28;20340;-71
2022/01/15 14:39:04;;;;;;;2.17;0.50;;;;;;;;;;5016569;28;20076;-65
2022/01/15 14:41:36;;;;;;;4.60;0.73;;;;;;;;;;4994584;28;20053;-70
2022/01/15 14:44:07;;;;;;;1.02;0.73;;;;;;;;;;5042236;28;20060;-71
2022/01/15 14:46:41;;;;;;;2.58;0.55;;;;;;;;;;5027355;28;20056;-67
2022/01/15 14:49:11;;;;;;;7.35;0.93;;;;;;;;;;4994181;28;20057;-65
2022/01/15 14:51:41;;;;;;;1.80;0.65;;;;;;;;;;5011818;28;20417;-67
2022/01/15 14:54:12;;;;;;;2.25;0.43;;;;;;;;;;5028092;28;20072;-70
2022/01/15 14:56:42;;;;;;;3.90;0.77;;;;;;;;;;5016420;28;20531;-68
2022/01/15 14:59:15;;;;;;;1.52;0.90;;;;;;;;;;5027784;28;20062;-71
2022/01/15 15:01:46;;;;;;;4.68;0.70;;;;;;;;;;5041440;28;20406;-64
2022/01/15 15:04:16;;;;;;;2.72;0.82;;;;;;;;;;5033850;28;20062;-65
2022/01/15 15:06:47;;;;;;;2.08;0.52;;;;;;;;;;5038978;28;20097;-74
2022/01/15 15:09:17;;;;;;;2.85;0.50;;;;;;;;;;5011210;28;20073;-76
2022/01/15 15:11:48;;;;;;;5.97;0.43;;;;;;;;;;5027141;28;20061;-72
2022/01/15 15:14:18;;;;;;;1.85;0.70;;;;;;;;;;5030244;28;20054;-71
2022/01/15 15:16:49;;;;;;;0.63;0.40;;;;;;;;;;5031439;28;20242;-72
2022/01/15 15:19:24;;;;;;;2.22;0.50;;;;;;;;;;5003664;28;20053;-70
2022/01/15 15:21:54;;;;;;;0.73;0.43;;;;;;;;;;4997781;28;20064;-75
2022/01/15 15:24:25;;;;;;;1.40;0.43;;;;;;;;;;5041733;28;20057;-72
2022/01/15 15:26:55;;;;;;;4.63;0.77;;;;;;;;;;5061672;28;20040;-65
2022/01/15 15:29:27;;;;;;;1.83;0.75;;;;;;;;;;5049593;28;20771;-65
2022/01/15 15:31:56;;;;;;;;;;;;;;;;;;5035113;28;20064;-66
2022/01/15 15:34:26;;;;;;;1.10;0.30;;;;;;;;;;5051056;28;20265;-69
2022/01/15 15:36:56;;;;;;;0.65;0.43;;;;;;;;;;5050168;28;20048;-66
2022/01/15 15:39:27;;;;;;;2.28;0.43;;;;;;;;;;5050894;28;20220;-72
2022/01/15 15:41:59;;;;;;;1.08;0.52;;;;;;;;;;5050958;28;20041;-68
2022/01/15 15:44:29;;;;;;;0.88;0.43;;;;;;;;;;5052053;28;20084;-66